Cepheus Leader — 3EIB2 — position and weather

sailwx.info

Track history (hours):
 
Tides and Currents Weather Stations Pressure Air Temp Water Temp Dewpoint Dewpoint Depression Visibility Wind Speed Wind Dir Waves Ship Positions

Cepheus Leader

Last reported at 2018-Feb-23 05:00 UTC. Time now 2018-Feb-23 05:11 UTC.
Position N 33°47' W 118°43'.

Length 199 m; draft 9.6 m.

Type: Ship. MMSI: 372056000.

Date/timePositionNaut miles runAvg speedWind from/ knotsBaromVisibWave heightAir tempDewpointWater temp
2018-Feb-23 05:00N 33°47' W 118°43'4 8.7
2018-Feb-23 04:30N 33°49' W 118°47'4 8.9
2018-Feb-23 04:00N 33°51' W 118°52'5 9.5
2018-Feb-23 03:30N 33°53' W 118°57'5 9.9
2018-Feb-23 03:00N 33°56' W 119°02'5 9.4
2018-Feb-23 02:30N 33°58' W 119°07'5 9.3
2018-Feb-23 02:00N 34°00' W 119°12'5 9.3
2018-Feb-23 01:30N 34°02' W 119°17'5 8.9
2018-Feb-23 00:59N 34°04' W 119°22'4 9.2
2018-Feb-23 00:30N 34°05' W 119°27'5 9.1
2018-Feb-22 23:59N 34°06' W 119°33'5 8.7
2018-Feb-22 23:25N 34°08' W 119°38'4 8.5
2018-Feb-22 22:56N 34°09' W 119°43'4 8.5
2018-Feb-22 22:28N 34°10' W 119°48'4 8.5
2018-Feb-22 21:59N 34°11' W 119°53'6 8.5
2018-Feb-22 21:19N 34°12' W 119°59'3 8.4
2018-Feb-22 20:59N 34°13' W 120°02'5 8.6
2018-Feb-22 20:26N 34°14' W 120°08'4 8.5
2018-Feb-22 19:58N 34°15' W 120°13'4 8.5
2018-Feb-22 19:28N 34°16' W 120°18'5 8.1
2018-Feb-22 18:54N 34°18' W 120°23'4 9.0
2018-Feb-22 18:30N 34°19' W 120°27'5 9.3
2018-Feb-22 17:56N 34°20' W 120°33'4 9.2
2018-Feb-22 17:30N 34°21' W 120°38'4 7.5
2018-Feb-22 17:00N 34°22' W 120°42'510.0
2018-Feb-22 16:30N 34°23' W 120°48'510.8
2018-Feb-22 16:00N 34°25' W 120°54'611.6
2018-Feb-22 15:30N 34°25' W 121°01'611.7
2018-Feb-22 15:00N 34°25' W 121°09'612.6
2018-Feb-22 14:30N 34°26' W 121°16'713.1
2018-Feb-22 14:00N 34°26' W 121°24'612.8
2018-Feb-22 13:30N 34°25' W 121°32'612.8
2018-Feb-22 13:00N 34°26' W 121°40'713.1
2018-Feb-22 12:30N 34°26' W 121°48'713.8
2018-Feb-22 12:00N 34°26' W 121°56'  
Track history (hours):
 
Tides and Currents Weather Stations Pressure Air Temp Water Temp Dewpoint Dewpoint Depression Visibility Wind Speed Wind Dir Waves Ship Positions

Cepheus Leader

Last reported at 2018-Feb-23 05:00 UTC. Time now 2018-Feb-23 05:11 UTC.
Position N 33°47' W 118°43'.

Length 199 m; draft 9.6 m.

Type: Ship. MMSI: 372056000.

Date/timePositionNaut miles runAvg speedWind from/ knotsBaromVisibWave heightAir tempDewpointWater temp
2018-Feb-23 05:00N 33°47' W 118°43'4 8.7
2018-Feb-23 04:30N 33°49' W 118°47'4 8.9
2018-Feb-23 04:00N 33°51' W 118°52'5 9.5
2018-Feb-23 03:30N 33°53' W 118°57'5 9.9
2018-Feb-23 03:00N 33°56' W 119°02'5 9.4
2018-Feb-23 02:30N 33°58' W 119°07'5 9.3
2018-Feb-23 02:00N 34°00' W 119°12'5 9.3
2018-Feb-23 01:30N 34°02' W 119°17'5 8.9
2018-Feb-23 00:59N 34°04' W 119°22'4 9.2
2018-Feb-23 00:30N 34°05' W 119°27'5 9.1
2018-Feb-22 23:59N 34°06' W 119°33'5 8.7
2018-Feb-22 23:25N 34°08' W 119°38'4 8.5
2018-Feb-22 22:56N 34°09' W 119°43'4 8.5
2018-Feb-22 22:28N 34°10' W 119°48'4 8.5
2018-Feb-22 21:59N 34°11' W 119°53'6 8.5
2018-Feb-22 21:19N 34°12' W 119°59'3 8.4
2018-Feb-22 20:59N 34°13' W 120°02'5 8.6
2018-Feb-22 20:26N 34°14' W 120°08'4 8.5
2018-Feb-22 19:58N 34°15' W 120°13'4 8.5
2018-Feb-22 19:28N 34°16' W 120°18'5 8.1
2018-Feb-22 18:54N 34°18' W 120°23'4 9.0
2018-Feb-22 18:30N 34°19' W 120°27'5 9.3
2018-Feb-22 17:56N 34°20' W 120°33'4 9.2
2018-Feb-22 17:30N 34°21' W 120°38'4 7.5
2018-Feb-22 17:00N 34°22' W 120°42'510.0
2018-Feb-22 16:30N 34°23' W 120°48'510.8
2018-Feb-22 16:00N 34°25' W 120°54'611.6
2018-Feb-22 15:30N 34°25' W 121°01'611.7
2018-Feb-22 15:00N 34°25' W 121°09'612.6
2018-Feb-22 14:30N 34°26' W 121°16'713.1
2018-Feb-22 14:00N 34°26' W 121°24'612.8
2018-Feb-22 13:30N 34°25' W 121°32'612.8
2018-Feb-22 13:00N 34°26' W 121°40'713.1
2018-Feb-22 12:30N 34°26' W 121°48'713.8
2018-Feb-22 12:00N 34°26' W 121°56'  

Dump ship's entire track history